sensor_id;sensor_type;location;lat;lon;timestamp;temperature;humidity
59847;DHT22;45728;48.788;2.302;2023-04-15T00:01:38;9.40;99.90
59847;DHT22;45728;48.788;2.302;2023-04-15T00:04:04;9.40;99.90
59847;DHT22;45728;48.788;2.302;2023-04-15T00:06:30;9.40;99.90
59847;DHT22;45728;48.788;2.302;2023-04-15T00:08:56;9.40;99.90
59847;DHT22;45728;48.788;2.302;2023-04-15T00:11:22;9.40;99.90
59847;DHT22;45728;48.788;2.302;2023-04-15T00:13:49;9.40;99.90
59847;DHT22;45728;48.788;2.302;2023-04-15T00:16:15;9.40;99.90
59847;DHT22;45728;48.788;2.302;2023-04-15T00:18:41;9.40;99.90
59847;DHT22;45728;48.788;2.302;2023-04-15T00:21:07;9.50;99.90
59847;DHT22;45728;48.788;2.302;2023-04-15T00:23:34;9.40;99.90
59847;DHT22;45728;48.788;2.302;2023-04-15T00:26:01;9.40;99.90
59847;DHT22;45728;48.788;2.302;2023-04-15T00:28:27;9.40;99.90
59847;DHT22;45728;48.788;2.302;2023-04-15T00:30:54;9.40;99.90
59847;DHT22;45728;48.788;2.302;2023-04-15T00:33:20;9.30;99.90
59847;DHT22;45728;48.788;2.302;2023-04-15T00:35:46;9.40;99.90
59847;DHT22;45728;48.788;2.302;2023-04-15T00:38:12;9.40;99.90
59847;DHT22;45728;48.788;2.302;2023-04-15T00:40:38;9.30;99.90
59847;DHT22;45728;48.788;2.302;2023-04-15T00:43:04;9.30;99.90
59847;DHT22;45728;48.788;2.302;2023-04-15T00:45:31;9.30;99.90
59847;DHT22;45728;48.788;2.302;2023-04-15T00:47:58;9.30;99.90
59847;DHT22;45728;48.788;2.302;2023-04-15T00:50:24;9.30;99.90
59847;DHT22;45728;48.788;2.302;2023-04-15T00:52:50;9.30;99.90
59847;DHT22;45728;48.788;2.302;2023-04-15T00:55:16;9.30;99.90
59847;DHT22;45728;48.788;2.302;2023-04-15T00:57:43;9.30;99.90
59847;DHT22;45728;48.788;2.302;2023-04-15T01:00:10;9.30;99.90
59847;DHT22;45728;48.788;2.302;2023-04-15T01:02:37;9.30;99.90
59847;DHT22;45728;48.788;2.302;2023-04-15T01:05:04;9.30;99.90
59847;DHT22;45728;48.788;2.302;2023-04-15T01:07:30;9.30;99.90
59847;DHT22;45728;48.788;2.302;2023-04-15T01:09:57;9.20;99.90
59847;DHT22;45728;48.788;2.302;2023-04-15T01:12:25;9.20;99.90
59847;DHT22;45728;48.788;2.302;2023-04-15T01:14:53;9.20;99.90
59847;DHT22;45728;48.788;2.302;2023-04-15T01:17:19;9.20;99.90
59847;DHT22;45728;48.788;2.302;2023-04-15T01:19:45;9.30;99.90
59847;DHT22;45728;48.788;2.302;2023-04-15T01:22:12;9.30;99.90
59847;DHT22;45728;48.788;2.302;2023-04-15T01:24:38;9.30;99.90
59847;DHT22;45728;48.788;2.302;2023-04-15T01:27:05;9.30;99.90
59847;DHT22;45728;48.788;2.302;2023-04-15T01:29:33;9.30;99.90
59847;DHT22;45728;48.788;2.302;2023-04-15T01:31:59;9.30;99.90
59847;DHT22;45728;48.788;2.302;2023-04-15T01:34:25;9.30;99.90
59847;DHT22;45728;48.788;2.302;2023-04-15T01:36:51;9.30;99.90
59847;DHT22;45728;48.788;2.302;2023-04-15T01:39:17;9.30;99.90
59847;DHT22;45728;48.788;2.302;2023-04-15T01:41:44;9.30;99.90
59847;DHT22;45728;48.788;2.302;2023-04-15T01:44:10;9.30;99.90
59847;DHT22;45728;48.788;2.302;2023-04-15T01:46:36;9.30;99.90
59847;DHT22;45728;48.788;2.302;2023-04-15T01:49:02;9.30;99.90
59847;DHT22;45728;48.788;2.302;2023-04-15T01:51:28;9.20;99.90
59847;DHT22;45728;48.788;2.302;2023-04-15T01:53:54;9.10;99.90
59847;DHT22;45728;48.788;2.302;2023-04-15T01:56:23;9.10;99.90
59847;DHT22;45728;48.788;2.302;2023-04-15T01:58:50;9.20;99.90
59847;DHT22;45728;48.788;2.302;2023-04-15T02:01:16;9.20;99.90
59847;DHT22;45728;48.788;2.302;2023-04-15T02:03:45;9.30;99.90
59847;DHT22;45728;48.788;2.302;2023-04-15T02:06:11;9.20;99.90
59847;DHT22;45728;48.788;2.302;2023-04-15T02:08:37;9.20;99.90
59847;DHT22;45728;48.788;2.302;2023-04-15T02:11:03;9.30;99.90
59847;DHT22;45728;48.788;2.302;2023-04-15T02:13:30;9.30;99.90
59847;DHT22;45728;48.788;2.302;2023-04-15T02:15:56;9.30;99.90
59847;DHT22;45728;48.788;2.302;2023-04-15T02:18:22;9.40;99.90
59847;DHT22;45728;48.788;2.302;2023-04-15T02:20:50;9.40;99.90
59847;DHT22;45728;48.788;2.302;2023-04-15T02:23:17;9.40;99.90
59847;DHT22;45728;48.788;2.302;2023-04-15T02:25:43;9.40;99.90
59847;DHT22;45728;48.788;2.302;2023-04-15T02:28:09;9.30;99.90
59847;DHT22;45728;48.788;2.302;2023-04-15T02:30:35;9.30;99.90
59847;DHT22;45728;48.788;2.302;2023-04-15T02:33:02;9.30;99.90
59847;DHT22;45728;48.788;2.302;2023-04-15T02:35:28;9.30;99.90
59847;DHT22;45728;48.788;2.302;2023-04-15T02:37:54;9.20;99.90
59847;DHT22;45728;48.788;2.302;2023-04-15T02:40:20;9.20;99.90
59847;DHT22;45728;48.788;2.302;2023-04-15T02:42:46;9.20;99.90
59847;DHT22;45728;48.788;2.302;2023-04-15T02:45:12;9.20;99.90
59847;DHT22;45728;48.788;2.302;2023-04-15T02:47:38;9.20;99.90
59847;DHT22;45728;48.788;2.302;2023-04-15T02:50:07;9.20;99.90
59847;DHT22;45728;48.788;2.302;2023-04-15T02:52:34;9.20;99.90
59847;DHT22;45728;48.788;2.302;2023-04-15T02:55:00;9.20;99.90
59847;DHT22;45728;48.788;2.302;2023-04-15T02:57:27;9.10;99.90
59847;DHT22;45728;48.788;2.302;2023-04-15T02:59:56;9.20;99.90
59847;DHT22;45728;48.788;2.302;2023-04-15T03:02:22;9.20;99.90
59847;DHT22;45728;48.788;2.302;2023-04-15T03:04:48;9.20;99.90
59847;DHT22;45728;48.788;2.302;2023-04-15T03:07:16;9.20;99.90
59847;DHT22;45728;48.788;2.302;2023-04-15T03:09:42;9.10;99.90
59847;DHT22;45728;48.788;2.302;2023-04-15T03:12:08;9.20;99.90
59847;DHT22;45728;48.788;2.302;2023-04-15T03:14:34;9.10;99.90
59847;DHT22;45728;48.788;2.302;2023-04-15T03:17:00;9.10;99.90
59847;DHT22;45728;48.788;2.302;2023-04-15T03:19:26;9.10;99.90
59847;DHT22;45728;48.788;2.302;2023-04-15T03:21:52;9.10;99.90
59847;DHT22;45728;48.788;2.302;2023-04-15T03:24:19;9.10;99.90
59847;DHT22;45728;48.788;2.302;2023-04-15T03:26:45;9.10;99.90
59847;DHT22;45728;48.788;2.302;2023-04-15T03:29:11;9.20;99.90
59847;DHT22;45728;48.788;2.302;2023-04-15T03:31:37;9.20;99.90
59847;DHT22;45728;48.788;2.302;2023-04-15T03:34:03;9.10;99.90
59847;DHT22;45728;48.788;2.302;2023-04-15T03:36:30;9.10;99.90
59847;DHT22;45728;48.788;2.302;2023-04-15T03:38:59;9.10;99.90
59847;DHT22;45728;48.788;2.302;2023-04-15T03:41:27;9.10;99.90
59847;DHT22;45728;48.788;2.302;2023-04-15T03:43:53;9.10;99.90
59847;DHT22;45728;48.788;2.302;2023-04-15T03:46:19;9.00;99.90
59847;DHT22;45728;48.788;2.302;2023-04-15T03:48:46;9.00;99.90
59847;DHT22;45728;48.788;2.302;2023-04-15T03:51:12;8.90;99.90
59847;DHT22;45728;48.788;2.302;2023-04-15T03:53:38;8.80;99.90
59847;DHT22;45728;48.788;2.302;2023-04-15T03:56:05;8.80;99.90
59847;DHT22;45728;48.788;2.302;2023-04-15T03:58:31;8.80;99.90
59847;DHT22;45728;48.788;2.302;2023-04-15T04:00:57;8.80;99.90
59847;DHT22;45728;48.788;2.302;2023-04-15T04:03:23;8.70;99.90
59847;DHT22;45728;48.788;2.302;2023-04-15T04:05:50;8.70;99.90
59847;DHT22;45728;48.788;2.302;2023-04-15T04:08:16;8.60;99.90
59847;DHT22;45728;48.788;2.302;2023-04-15T04:10:44;8.60;99.90
59847;DHT22;45728;48.788;2.302;2023-04-15T04:13:10;8.60;99.90
59847;DHT22;45728;48.788;2.302;2023-04-15T04:15:36;8.60;99.90
59847;DHT22;45728;48.788;2.302;2023-04-15T04:18:02;8.60;99.90
59847;DHT22;45728;48.788;2.302;2023-04-15T04:20:28;8.60;99.90
59847;DHT22;45728;48.788;2.302;2023-04-15T04:22:57;8.60;99.90
59847;DHT22;45728;48.788;2.302;2023-04-15T04:25:23;8.60;99.90
59847;DHT22;45728;48.788;2.302;2023-04-15T04:27:49;8.60;99.90
59847;DHT22;45728;48.788;2.302;2023-04-15T04:30:15;8.60;99.90
59847;DHT22;45728;48.788;2.302;2023-04-15T04:32:41;8.60;99.90
59847;DHT22;45728;48.788;2.302;2023-04-15T04:35:08;8.60;99.90
59847;DHT22;45728;48.788;2.302;2023-04-15T04:37:34;8.60;99.90
59847;DHT22;45728;48.788;2.302;2023-04-15T04:40:00;8.60;99.90
59847;DHT22;45728;48.788;2.302;2023-04-15T04:42:26;8.50;99.90
59847;DHT22;45728;48.788;2.302;2023-04-15T04:44:52;8.50;99.90
59847;DHT22;45728;48.788;2.302;2023-04-15T04:47:18;8.60;99.90
59847;DHT22;45728;48.788;2.302;2023-04-15T04:49:44;8.60;99.90
59847;DHT22;45728;48.788;2.302;2023-04-15T04:52:10;8.60;99.90
59847;DHT22;45728;48.788;2.302;2023-04-15T04:54:36;8.60;99.90
59847;DHT22;45728;48.788;2.302;2023-04-15T04:57:02;8.50;99.90
59847;DHT22;45728;48.788;2.302;2023-04-15T04:59:28;8.50;99.90
59847;DHT22;45728;48.788;2.302;2023-04-15T05:01:54;8.60;99.90
59847;DHT22;45728;48.788;2.302;2023-04-15T05:04:21;8.60;99.90
59847;DHT22;45728;48.788;2.302;2023-04-15T05:06:47;8.60;99.90
59847;DHT22;45728;48.788;2.302;2023-04-15T05:09:13;8.50;99.90
59847;DHT22;45728;48.788;2.302;2023-04-15T05:11:39;8.60;99.90
59847;DHT22;45728;48.788;2.302;2023-04-15T05:14:05;8.60;99.90
59847;DHT22;45728;48.788;2.302;2023-04-15T05:16:31;8.60;99.90
59847;DHT22;45728;48.788;2.302;2023-04-15T05:18:57;8.60;99.90
59847;DHT22;45728;48.788;2.302;2023-04-15T05:21:23;8.60;99.90
59847;DHT22;45728;48.788;2.302;2023-04-15T05:23:50;8.60;99.90
59847;DHT22;45728;48.788;2.302;2023-04-15T05:26:16;8.60;99.90
59847;DHT22;45728;48.788;2.302;2023-04-15T05:28:42;8.60;99.90
59847;DHT22;45728;48.788;2.302;2023-04-15T05:31:09;8.60;99.90
59847;DHT22;45728;48.788;2.302;2023-04-15T05:33:35;8.60;99.90
59847;DHT22;45728;48.788;2.302;2023-04-15T05:36:01;8.60;99.90
59847;DHT22;45728;48.788;2.302;2023-04-15T05:38:27;8.60;99.90
59847;DHT22;45728;48.788;2.302;2023-04-15T05:40:53;8.60;99.90
59847;DHT22;45728;48.788;2.302;2023-04-15T05:43:19;8.60;99.90
59847;DHT22;45728;48.788;2.302;2023-04-15T05:45:46;8.60;99.90
59847;DHT22;45728;48.788;2.302;2023-04-15T05:48:12;8.70;99.90
59847;DHT22;45728;48.788;2.302;2023-04-15T05:50:40;8.70;99.90
59847;DHT22;45728;48.788;2.302;2023-04-15T05:53:07;8.70;99.90
59847;DHT22;45728;48.788;2.302;2023-04-15T05:55:33;8.70;99.90
59847;DHT22;45728;48.788;2.302;2023-04-15T05:57:59;8.70;99.90
59847;DHT22;45728;48.788;2.302;2023-04-15T06:00:25;8.70;99.90
59847;DHT22;45728;48.788;2.302;2023-04-15T06:02:52;8.70;99.90
59847;DHT22;45728;48.788;2.302;2023-04-15T06:05:18;8.70;99.90
59847;DHT22;45728;48.788;2.302;2023-04-15T06:07:44;8.70;99.90
59847;DHT22;45728;48.788;2.302;2023-04-15T06:10:11;8.70;99.90
59847;DHT22;45728;48.788;2.302;2023-04-15T06:12:37;8.70;99.90
59847;DHT22;45728;48.788;2.302;2023-04-15T06:15:04;8.70;99.90
59847;DHT22;45728;48.788;2.302;2023-04-15T06:17:31;8.70;99.90
59847;DHT22;45728;48.788;2.302;2023-04-15T06:19:57;8.70;99.90
59847;DHT22;45728;48.788;2.302;2023-04-15T06:22:23;8.70;99.90
59847;DHT22;45728;48.788;2.302;2023-04-15T06:24:49;8.70;99.90
59847;DHT22;45728;48.788;2.302;2023-04-15T06:27:16;8.70;99.90
59847;DHT22;45728;48.788;2.302;2023-04-15T06:29:42;8.70;99.90
59847;DHT22;45728;48.788;2.302;2023-04-15T06:32:09;8.70;99.90
59847;DHT22;45728;48.788;2.302;2023-04-15T06:34:35;8.70;99.90
59847;DHT22;45728;48.788;2.302;2023-04-15T06:37:01;8.70;99.90
59847;DHT22;45728;48.788;2.302;2023-04-15T06:39:27;8.80;99.90
59847;DHT22;45728;48.788;2.302;2023-04-15T06:41:54;8.80;99.90
59847;DHT22;45728;48.788;2.302;2023-04-15T06:44:20;8.80;99.90
59847;DHT22;45728;48.788;2.302;2023-04-15T06:46:46;8.80;99.90
59847;DHT22;45728;48.788;2.302;2023-04-15T06:49:12;8.80;99.90
59847;DHT22;45728;48.788;2.302;2023-04-15T06:51:38;8.80;99.90
59847;DHT22;45728;48.788;2.302;2023-04-15T06:54:04;8.80;99.90
59847;DHT22;45728;48.788;2.302;2023-04-15T06:56:32;8.80;99.90
59847;DHT22;45728;48.788;2.302;2023-04-15T06:58:58;8.90;99.90
59847;DHT22;45728;48.788;2.302;2023-04-15T07:01:24;8.90;99.90
59847;DHT22;45728;48.788;2.302;2023-04-15T07:03:50;8.90;99.90
59847;DHT22;45728;48.788;2.302;2023-04-15T07:06:16;8.90;99.90
59847;DHT22;45728;48.788;2.302;2023-04-15T07:08:42;8.90;99.90
59847;DHT22;45728;48.788;2.302;2023-04-15T07:11:08;8.90;99.90
59847;DHT22;45728;48.788;2.302;2023-04-15T07:13:34;8.90;99.90
59847;DHT22;45728;48.788;2.302;2023-04-15T07:16:01;8.90;99.90
59847;DHT22;45728;48.788;2.302;2023-04-15T07:18:27;8.90;99.90
59847;DHT22;45728;48.788;2.302;2023-04-15T07:20:53;8.90;99.90
59847;DHT22;45728;48.788;2.302;2023-04-15T07:23:19;8.90;99.90
59847;DHT22;45728;48.788;2.302;2023-04-15T07:25:45;8.90;99.90
59847;DHT22;45728;48.788;2.302;2023-04-15T07:28:12;8.90;99.90
59847;DHT22;45728;48.788;2.302;2023-04-15T07:30:38;8.90;99.90
59847;DHT22;45728;48.788;2.302;2023-04-15T07:33:04;8.90;99.90
59847;DHT22;45728;48.788;2.302;2023-04-15T07:35:30;8.90;99.90
59847;DHT22;45728;48.788;2.302;2023-04-15T07:37:56;8.90;99.90
59847;DHT22;45728;48.788;2.302;2023-04-15T07:40:22;8.90;99.90
59847;DHT22;45728;48.788;2.302;2023-04-15T07:42:48;8.90;99.90
59847;DHT22;45728;48.788;2.302;2023-04-15T07:45:14;8.90;99.90
59847;DHT22;45728;48.788;2.302;2023-04-15T07:47:41;8.90;99.90
59847;DHT22;45728;48.788;2.302;2023-04-15T07:50:08;8.90;99.90
59847;DHT22;45728;48.788;2.302;2023-04-15T07:52:36;8.90;99.90
59847;DHT22;45728;48.788;2.302;2023-04-15T07:55:05;8.90;99.90
59847;DHT22;45728;48.788;2.302;2023-04-15T07:57:36;8.90;99.90
59847;DHT22;45728;48.788;2.302;2023-04-15T08:00:03;8.90;99.90
59847;DHT22;45728;48.788;2.302;2023-04-15T08:02:30;8.90;99.90
59847;DHT22;45728;48.788;2.302;2023-04-15T08:04:57;8.90;99.90
59847;DHT22;45728;48.788;2.302;2023-04-15T08:07:23;8.90;99.90
59847;DHT22;45728;48.788;2.302;2023-04-15T08:09:50;8.90;99.90
59847;DHT22;45728;48.788;2.302;2023-04-15T08:12:16;8.90;99.90
59847;DHT22;45728;48.788;2.302;2023-04-15T08:14:42;8.90;99.90
59847;DHT22;45728;48.788;2.302;2023-04-15T08:17:08;8.90;99.90
59847;DHT22;45728;48.788;2.302;2023-04-15T08:19:34;8.90;99.90
59847;DHT22;45728;48.788;2.302;2023-04-15T08:22:00;8.90;99.90
59847;DHT22;45728;48.788;2.302;2023-04-15T08:24:27;8.90;99.90
59847;DHT22;45728;48.788;2.302;2023-04-15T08:26:53;8.90;99.90
59847;DHT22;45728;48.788;2.302;2023-04-15T08:29:19;9.00;99.90
59847;DHT22;45728;48.788;2.302;2023-04-15T08:31:45;9.00;99.90
59847;DHT22;45728;48.788;2.302;2023-04-15T08:34:12;9.10;99.90
59847;DHT22;45728;48.788;2.302;2023-04-15T08:36:38;9.10;99.90
59847;DHT22;45728;48.788;2.302;2023-04-15T08:39:04;9.10;99.90
59847;DHT22;45728;48.788;2.302;2023-04-15T08:41:51;9.10;99.90
59847;DHT22;45728;48.788;2.302;2023-04-15T08:44:17;9.10;99.90
59847;DHT22;45728;48.788;2.302;2023-04-15T08:46:45;9.10;99.90
59847;DHT22;45728;48.788;2.302;2023-04-15T08:49:11;9.20;99.90
59847;DHT22;45728;48.788;2.302;2023-04-15T08:51:39;9.30;99.90
59847;DHT22;45728;48.788;2.302;2023-04-15T08:54:07;9.40;99.90
59847;DHT22;45728;48.788;2.302;2023-04-15T08:56:35;9.40;99.90
59847;DHT22;45728;48.788;2.302;2023-04-15T08:59:02;9.50;99.90
59847;DHT22;45728;48.788;2.302;2023-04-15T09:01:28;9.50;99.90
59847;DHT22;45728;48.788;2.302;2023-04-15T09:03:55;9.50;99.90
59847;DHT22;45728;48.788;2.302;2023-04-15T09:06:22;9.60;99.90
59847;DHT22;45728;48.788;2.302;2023-04-15T09:08:50;9.70;99.90
59847;DHT22;45728;48.788;2.302;2023-04-15T09:11:17;9.70;99.90
59847;DHT22;45728;48.788;2.302;2023-04-15T09:13:44;9.70;99.90
59847;DHT22;45728;48.788;2.302;2023-04-15T09:16:12;9.70;99.90
59847;DHT22;45728;48.788;2.302;2023-04-15T09:18:38;9.70;99.90
59847;DHT22;45728;48.788;2.302;2023-04-15T09:23:34;9.70;99.90
59847;DHT22;45728;48.788;2.302;2023-04-15T09:26:01;9.70;99.90
59847;DHT22;45728;48.788;2.302;2023-04-15T09:28:28;9.70;99.90
59847;DHT22;45728;48.788;2.302;2023-04-15T09:30:59;9.60;99.90
59847;DHT22;45728;48.788;2.302;2023-04-15T09:33:26;9.60;99.90
59847;DHT22;45728;48.788;2.302;2023-04-15T09:38:26;9.50;99.90
59847;DHT22;45728;48.788;2.302;2023-04-15T09:40:53;9.40;99.90
59847;DHT22;45728;48.788;2.302;2023-04-15T09:43:19;9.40;99.90
59847;DHT22;45728;48.788;2.302;2023-04-15T09:45:48;9.40;99.90
59847;DHT22;45728;48.788;2.302;2023-04-15T09:48:23;9.40;99.90
59847;DHT22;45728;48.788;2.302;2023-04-15T09:50:52;9.50;99.90
59847;DHT22;45728;48.788;2.302;2023-04-15T09:53:20;9.50;99.90
59847;DHT22;45728;48.788;2.302;2023-04-15T09:55:57;9.50;99.90
59847;DHT22;45728;48.788;2.302;2023-04-15T09:58:25;9.50;99.90
59847;DHT22;45728;48.788;2.302;2023-04-15T10:00:53;9.60;99.90
59847;DHT22;45728;48.788;2.302;2023-04-15T10:03:22;9.60;99.90
59847;DHT22;45728;48.788;2.302;2023-04-15T10:05:50;9.60;99.90
59847;DHT22;45728;48.788;2.302;2023-04-15T10:08:18;9.70;99.90
59847;DHT22;45728;48.788;2.302;2023-04-15T10:10:45;9.90;99.90
59847;DHT22;45728;48.788;2.302;2023-04-15T10:13:13;9.90;99.90
59847;DHT22;45728;48.788;2.302;2023-04-15T10:15:43;10.10;99.90
59847;DHT22;45728;48.788;2.302;2023-04-15T10:18:14;10.30;99.90
59847;DHT22;45728;48.788;2.302;2023-04-15T10:20:41;10.50;99.90
59847;DHT22;45728;48.788;2.302;2023-04-15T10:23:08;10.60;99.90
59847;DHT22;45728;48.788;2.302;2023-04-15T10:25:35;10.60;99.90
59847;DHT22;45728;48.788;2.302;2023-04-15T10:28:02;10.60;99.90
59847;DHT22;45728;48.788;2.302;2023-04-15T10:30:31;10.60;99.90
59847;DHT22;45728;48.788;2.302;2023-04-15T10:32:58;10.60;99.90
59847;DHT22;45728;48.788;2.302;2023-04-15T10:35:25;10.70;99.90
59847;DHT22;45728;48.788;2.302;2023-04-15T10:37:51;10.80;99.90
59847;DHT22;45728;48.788;2.302;2023-04-15T10:40:27;10.70;99.90
59847;DHT22;45728;48.788;2.302;2023-04-15T10:42:54;10.70;99.90
59847;DHT22;45728;48.788;2.302;2023-04-15T10:45:25;10.70;99.90
59847;DHT22;45728;48.788;2.302;2023-04-15T10:47:55;10.80;99.90
59847;DHT22;45728;48.788;2.302;2023-04-15T10:50:21;10.80;99.90
59847;DHT22;45728;48.788;2.302;2023-04-15T10:52:50;10.90;99.90
59847;DHT22;45728;48.788;2.302;2023-04-15T10:55:25;10.90;99.90
59847;DHT22;45728;48.788;2.302;2023-04-15T10:57:58;11.00;99.90
59847;DHT22;45728;48.788;2.302;2023-04-15T11:00:28;11.00;99.90
59847;DHT22;45728;48.788;2.302;2023-04-15T11:02:56;11.00;99.90
59847;DHT22;45728;48.788;2.302;2023-04-15T11:05:48;11.20;99.90
59847;DHT22;45728;48.788;2.302;2023-04-15T11:08:14;11.10;99.90
59847;DHT22;45728;48.788;2.302;2023-04-15T11:15:38;11.30;99.90
59847;DHT22;45728;48.788;2.302;2023-04-15T11:18:24;11.20;99.90
59847;DHT22;45728;48.788;2.302;2023-04-15T11:20:52;11.40;99.90
59847;DHT22;45728;48.788;2.302;2023-04-15T11:23:28;11.40;99.90
59847;DHT22;45728;48.788;2.302;2023-04-15T11:25:55;11.30;99.90
59847;DHT22;45728;48.788;2.302;2023-04-15T11:28:29;11.20;99.90
59847;DHT22;45728;48.788;2.302;2023-04-15T11:30:56;11.30;99.90
59847;DHT22;45728;48.788;2.302;2023-04-15T11:33:23;11.20;99.90
59847;DHT22;45728;48.788;2.302;2023-04-15T11:35:51;11.50;99.90
59847;DHT22;45728;48.788;2.302;2023-04-15T11:38:18;11.70;99.90
59847;DHT22;45728;48.788;2.302;2023-04-15T11:40:45;11.80;99.90
59847;DHT22;45728;48.788;2.302;2023-04-15T11:43:19;11.50;99.90
59847;DHT22;45728;48.788;2.302;2023-04-15T11:45:53;11.50;99.90
59847;DHT22;45728;48.788;2.302;2023-04-15T11:48:25;11.50;99.90
59847;DHT22;45728;48.788;2.302;2023-04-15T11:50:59;11.30;99.90
59847;DHT22;45728;48.788;2.302;2023-04-15T11:53:55;11.40;99.90
59847;DHT22;45728;48.788;2.302;2023-04-15T11:56:23;11.50;99.90
59847;DHT22;45728;48.788;2.302;2023-04-15T11:58:54;11.50;99.90
59847;DHT22;45728;48.788;2.302;2023-04-15T12:01:40;11.50;99.90
59847;DHT22;45728;48.788;2.302;2023-04-15T12:04:12;11.50;99.90
59847;DHT22;45728;48.788;2.302;2023-04-15T12:06:38;11.30;99.90
59847;DHT22;45728;48.788;2.302;2023-04-15T12:09:15;11.40;99.90
59847;DHT22;45728;48.788;2.302;2023-04-15T12:11:45;11.40;99.90
59847;DHT22;45728;48.788;2.302;2023-04-15T12:16:43;11.40;99.90
59847;DHT22;45728;48.788;2.302;2023-04-15T12:19:11;11.40;99.90
59847;DHT22;45728;48.788;2.302;2023-04-15T12:21:40;11.40;99.90
59847;DHT22;45728;48.788;2.302;2023-04-15T12:24:08;11.30;99.90
59847;DHT22;45728;48.788;2.302;2023-04-15T12:29:11;11.40;99.90
59847;DHT22;45728;48.788;2.302;2023-04-15T12:31:46;11.50;99.90
59847;DHT22;45728;48.788;2.302;2023-04-15T12:34:13;11.50;99.90
59847;DHT22;45728;48.788;2.302;2023-04-15T12:36:40;11.50;99.90
59847;DHT22;45728;48.788;2.302;2023-04-15T12:39:06;11.50;99.90
59847;DHT22;45728;48.788;2.302;2023-04-15T12:41:32;11.60;99.90
59847;DHT22;45728;48.788;2.302;2023-04-15T12:43:58;11.60;99.90
59847;DHT22;45728;48.788;2.302;2023-04-15T12:46:24;11.70;99.90
59847;DHT22;45728;48.788;2.302;2023-04-15T12:48:51;11.80;99.90
59847;DHT22;45728;48.788;2.302;2023-04-15T12:51:18;11.80;99.90
59847;DHT22;45728;48.788;2.302;2023-04-15T12:53:46;11.80;99.90
59847;DHT22;45728;48.788;2.302;2023-04-15T12:56:14;11.80;99.90
59847;DHT22;45728;48.788;2.302;2023-04-15T12:58:41;11.80;99.90
59847;DHT22;45728;48.788;2.302;2023-04-15T13:01:08;11.80;99.90
59847;DHT22;45728;48.788;2.302;2023-04-15T13:03:35;11.80;99.90
59847;DHT22;45728;48.788;2.302;2023-04-15T13:06:01;11.70;99.90
59847;DHT22;45728;48.788;2.302;2023-04-15T13:08:29;11.70;99.90
59847;DHT22;45728;48.788;2.302;2023-04-15T13:10:56;11.80;99.90
59847;DHT22;45728;48.788;2.302;2023-04-15T13:13:22;11.90;99.90
59847;DHT22;45728;48.788;2.302;2023-04-15T13:15:48;11.90;99.90
59847;DHT22;45728;48.788;2.302;2023-04-15T13:18:14;12.00;99.90
59847;DHT22;45728;48.788;2.302;2023-04-15T13:20:40;12.00;99.90
59847;DHT22;45728;48.788;2.302;2023-04-15T13:23:06;11.90;99.90
59847;DHT22;45728;48.788;2.302;2023-04-15T13:25:33;11.90;99.90
59847;DHT22;45728;48.788;2.302;2023-04-15T13:27:59;11.90;99.90
59847;DHT22;45728;48.788;2.302;2023-04-15T13:30:26;11.90;99.90
59847;DHT22;45728;48.788;2.302;2023-04-15T13:32:52;11.90;99.90
59847;DHT22;45728;48.788;2.302;2023-04-15T13:35:19;11.90;99.90
59847;DHT22;45728;48.788;2.302;2023-04-15T13:37:46;11.90;99.90
59847;DHT22;45728;48.788;2.302;2023-04-15T13:40:12;11.80;99.90
59847;DHT22;45728;48.788;2.302;2023-04-15T13:42:38;11.80;99.90
59847;DHT22;45728;48.788;2.302;2023-04-15T13:45:05;11.70;99.90
59847;DHT22;45728;48.788;2.302;2023-04-15T13:47:31;11.70;99.90
59847;DHT22;45728;48.788;2.302;2023-04-15T13:49:57;11.80;99.90
59847;DHT22;45728;48.788;2.302;2023-04-15T13:52:23;11.90;99.90
59847;DHT22;45728;48.788;2.302;2023-04-15T13:54:49;12.00;99.90
59847;DHT22;45728;48.788;2.302;2023-04-15T13:57:15;12.10;99.90
59847;DHT22;45728;48.788;2.302;2023-04-15T13:59:41;12.20;99.90
59847;DHT22;45728;48.788;2.302;2023-04-15T14:02:09;12.20;99.90
59847;DHT22;45728;48.788;2.302;2023-04-15T14:04:35;12.20;99.90
59847;DHT22;45728;48.788;2.302;2023-04-15T14:07:01;12.10;99.90
59847;DHT22;45728;48.788;2.302;2023-04-15T14:09:28;12.20;99.90
59847;DHT22;45728;48.788;2.302;2023-04-15T14:11:54;12.30;99.90
59847;DHT22;45728;48.788;2.302;2023-04-15T14:14:21;12.40;99.90
59847;DHT22;45728;48.788;2.302;2023-04-15T14:16:47;12.40;99.90
59847;DHT22;45728;48.788;2.302;2023-04-15T14:19:13;12.30;99.90
59847;DHT22;45728;48.788;2.302;2023-04-15T14:21:39;12.30;99.90
59847;DHT22;45728;48.788;2.302;2023-04-15T14:24:06;12.30;99.90
59847;DHT22;45728;48.788;2.302;2023-04-15T14:26:32;12.40;99.90
59847;DHT22;45728;48.788;2.302;2023-04-15T14:28:58;12.50;99.90
59847;DHT22;45728;48.788;2.302;2023-04-15T14:31:24;12.60;99.90
59847;DHT22;45728;48.788;2.302;2023-04-15T14:33:50;12.70;99.90
59847;DHT22;45728;48.788;2.302;2023-04-15T14:36:16;12.70;99.90
59847;DHT22;45728;48.788;2.302;2023-04-15T14:38:42;12.50;99.90
59847;DHT22;45728;48.788;2.302;2023-04-15T14:41:09;12.50;99.90
59847;DHT22;45728;48.788;2.302;2023-04-15T14:43:35;12.50;99.90
59847;DHT22;45728;48.788;2.302;2023-04-15T14:46:01;12.50;99.90
59847;DHT22;45728;48.788;2.302;2023-04-15T14:48:27;12.70;99.90
59847;DHT22;45728;48.788;2.302;2023-04-15T14:50:53;13.00;99.90
59847;DHT22;45728;48.788;2.302;2023-04-15T14:53:19;12.80;99.90
59847;DHT22;45728;48.788;2.302;2023-04-15T14:55:46;12.80;99.90
59847;DHT22;45728;48.788;2.302;2023-04-15T14:58:12;12.80;99.90
59847;DHT22;45728;48.788;2.302;2023-04-15T15:00:38;12.80;99.90
59847;DHT22;45728;48.788;2.302;2023-04-15T15:03:09;12.80;99.90
59847;DHT22;45728;48.788;2.302;2023-04-15T15:05:40;12.90;99.90
59847;DHT22;45728;48.788;2.302;2023-04-15T15:08:07;13.10;99.90
59847;DHT22;45728;48.788;2.302;2023-04-15T15:10:34;13.20;99.90
59847;DHT22;45728;48.788;2.302;2023-04-15T15:13:04;13.10;99.90
59847;DHT22;45728;48.788;2.302;2023-04-15T15:15:32;13.10;99.90
59847;DHT22;45728;48.788;2.302;2023-04-15T15:17:58;13.10;99.90
59847;DHT22;45728;48.788;2.302;2023-04-15T15:20:25;13.10;99.90
59847;DHT22;45728;48.788;2.302;2023-04-15T15:22:51;13.20;99.90
59847;DHT22;45728;48.788;2.302;2023-04-15T15:25:17;13.10;99.90
59847;DHT22;45728;48.788;2.302;2023-04-15T15:27:43;13.30;99.90
59847;DHT22;45728;48.788;2.302;2023-04-15T15:30:10;13.30;99.90
59847;DHT22;45728;48.788;2.302;2023-04-15T15:32:40;13.30;99.90
59847;DHT22;45728;48.788;2.302;2023-04-15T15:35:07;13.20;99.90
59847;DHT22;45728;48.788;2.302;2023-04-15T15:37:35;13.20;99.90
59847;DHT22;45728;48.788;2.302;2023-04-15T15:40:03;13.30;99.90
59847;DHT22;45728;48.788;2.302;2023-04-15T15:42:33;13.30;99.90
59847;DHT22;45728;48.788;2.302;2023-04-15T15:44:59;13.20;99.90
59847;DHT22;45728;48.788;2.302;2023-04-15T15:47:25;13.20;99.90
59847;DHT22;45728;48.788;2.302;2023-04-15T15:49:53;13.30;99.90
59847;DHT22;45728;48.788;2.302;2023-04-15T15:52:19;13.30;99.90
59847;DHT22;45728;48.788;2.302;2023-04-15T15:54:45;13.30;99.90